Terminal Aerodrome Forecast
Issued by NWS Lake Charles, LA

Home | Current Version | Previous Version | Text Only | Print | Product List | Glossary On
Versions: 1 2 3 4 5 6 7 8 9 10 11 12 13 14 15 16 17 18 19 20
000
FTUS44 KLCH 310500
TAFLFT
TAF
KLFT 310520Z 3106/0106 VRB03KT P6SM SKC
     FM311500 35012G23KT P6SM SKC=

USA.gov is the U.S. government's official web portal to all federal, state and local government web resources and services.